createdAt,value
2022-11-13T00:01:22.086Z,18.10
2022-11-13T00:03:49.217Z,19.40
2022-11-13T00:06:17.113Z,20.30
2022-11-13T00:08:47.103Z,20.03
2022-11-13T00:11:19.949Z,19.20
2022-11-13T00:13:50.474Z,17.70
2022-11-13T00:16:25.030Z,18.67
2022-11-13T00:18:56.532Z,17.27
2022-11-13T00:21:29.890Z,18.63
2022-11-13T00:23:57.409Z,17.83
2022-11-13T00:26:29.789Z,16.70
2022-11-13T00:29:02.207Z,18.77
2022-11-13T00:31:30.138Z,18.03
2022-11-13T00:34:25.983Z,16.27
2022-11-13T00:36:49.263Z,18.60
2022-11-13T00:39:16.247Z,19.07
2022-11-13T00:41:45.310Z,20.00
2022-11-13T00:44:16.744Z,19.13
2022-11-13T00:46:43.655Z,17.70
2022-11-13T00:49:13.154Z,18.90
2022-11-13T00:51:40.110Z,17.90
2022-11-13T00:54:07.031Z,19.47
2022-11-13T00:56:33.926Z,19.03
2022-11-13T00:59:05.667Z,17.70
2022-11-13T01:01:34.815Z,20.43
2022-11-13T01:04:01.816Z,20.63
2022-11-13T01:06:31.412Z,18.47
2022-11-13T01:09:01.084Z,17.77
2022-11-13T01:11:32.561Z,16.80
2022-11-13T01:13:59.467Z,18.50
2022-11-13T01:16:31.720Z,18.20
2022-11-13T01:18:58.651Z,17.03
2022-11-13T01:21:27.580Z,17.40
2022-11-13T01:23:57.342Z,18.43
2022-11-13T01:26:32.636Z,19.60
2022-11-13T01:29:00.466Z,19.70
2022-11-13T01:31:30.977Z,19.77
2022-11-13T01:34:00.718Z,18.70
2022-11-13T01:36:29.809Z,18.60
2022-11-13T01:38:59.089Z,17.77
2022-11-13T01:41:30.707Z,19.57
2022-11-13T01:44:00.965Z,17.47
2022-11-13T01:46:46.153Z,16.73
2022-11-13T01:49:38.929Z,16.53
2022-11-13T01:52:26.918Z,16.73
2022-11-13T01:55:02.791Z,18.30
2022-11-13T01:57:32.397Z,15.67
2022-11-13T02:00:09.317Z,15.60
2022-11-13T02:02:42.784Z,16.30
2022-11-13T02:05:09.774Z,15.10
2022-11-13T02:07:39.628Z,16.90
2022-11-13T02:10:10.518Z,16.13
2022-11-13T02:12:43.317Z,15.87
2022-11-13T02:15:10.697Z,16.87
2022-11-13T02:17:56.757Z,16.60
2022-11-13T02:20:40.238Z,15.90
2022-11-13T02:24:21.325Z,16.50
2022-11-13T02:26:53.248Z,16.90
2022-11-13T02:29:24.650Z,18.20
2022-11-13T02:31:51.719Z,16.73
2022-11-13T02:34:18.823Z,15.80
2022-11-13T02:36:45.923Z,16.67
2022-11-13T02:39:16.440Z,16.10
2022-11-13T02:41:45.539Z,14.23
2022-11-13T02:44:14.955Z,13.80
2022-11-13T02:46:41.892Z,14.27
2022-11-13T02:49:11.079Z,16.30
2022-11-13T02:51:38.108Z,16.13
2022-11-13T02:54:05.457Z,15.60
2022-11-13T02:56:32.466Z,15.57
2022-11-13T02:59:01.613Z,16.17
2022-11-13T03:01:33.852Z,16.10
2022-11-13T03:04:03.442Z,15.73
2022-11-13T03:06:30.418Z,17.03
2022-11-13T03:08:59.731Z,15.27
2022-11-13T03:11:26.863Z,15.50
2022-11-13T03:13:56.632Z,17.00
2022-11-13T03:16:23.530Z,15.60
2022-11-13T03:18:50.432Z,16.20
2022-11-13T03:21:17.482Z,14.30
2022-11-13T03:23:47.349Z,15.47
2022-11-13T03:26:17.033Z,15.70
2022-11-13T03:28:46.538Z,15.43
2022-11-13T03:31:13.815Z,15.40
2022-11-13T03:33:40.745Z,15.60
2022-11-13T03:36:08.242Z,15.13
2022-11-13T03:38:38.063Z,15.37
2022-11-13T03:41:05.616Z,14.13
2022-11-13T03:43:32.612Z,15.10
2022-11-13T03:45:59.563Z,16.20
2022-11-13T03:48:26.895Z,15.93
2022-11-13T03:50:59.615Z,16.40
2022-11-13T03:53:26.762Z,15.40
2022-11-13T03:55:53.926Z,14.97
2022-11-13T03:58:23.162Z,14.83
2022-11-13T04:00:54.127Z,14.63
2022-11-13T04:03:21.123Z,14.40
2022-11-13T04:05:51.725Z,15.43
2022-11-13T04:08:19.022Z,14.53
2022-11-13T04:10:46.510Z,13.37
2022-11-13T04:13:13.549Z,15.53
2022-11-13T04:15:43.541Z,16.30
2022-11-13T04:18:15.064Z,15.17
2022-11-13T04:20:44.972Z,13.97
2022-11-13T04:23:14.271Z,14.97
2022-11-13T04:25:44.194Z,15.00
2022-11-13T04:28:11.793Z,14.67
2022-11-13T04:30:39.276Z,15.50
2022-11-13T04:33:08.331Z,15.07
2022-11-13T04:35:35.486Z,13.60
2022-11-13T04:38:04.656Z,16.80
2022-11-13T04:40:31.631Z,15.87
2022-11-13T04:43:00.887Z,14.67
2022-11-13T04:45:28.103Z,14.67
2022-11-13T04:47:55.368Z,15.40
2022-11-13T04:50:23.540Z,14.80
2022-11-13T04:52:53.927Z,15.60
2022-11-13T04:55:23.013Z,14.50
2022-11-13T04:57:54.620Z,15.77
2022-11-13T05:00:23.849Z,14.40
2022-11-13T05:02:50.765Z,15.33
2022-11-13T05:05:19.955Z,15.00
2022-11-13T05:07:46.851Z,16.03
2022-11-13T05:10:13.983Z,15.40
2022-11-13T05:12:40.898Z,15.83
2022-11-13T05:15:08.487Z,14.70
2022-11-13T05:17:35.505Z,14.30
2022-11-13T05:20:04.852Z,15.00
2022-11-13T05:22:31.919Z,15.53
2022-11-13T05:25:00.916Z,15.47
2022-11-13T05:27:30.357Z,15.07
2022-11-13T05:29:59.718Z,15.60
2022-11-13T05:32:29.004Z,15.70
2022-11-13T05:34:58.032Z,15.90
2022-11-13T05:37:25.016Z,16.77
2022-11-13T05:39:54.933Z,15.90
2022-11-13T05:42:21.865Z,16.13
2022-11-13T05:44:48.736Z,15.70
2022-11-13T05:47:15.764Z,15.73
2022-11-13T05:49:42.723Z,15.57
2022-11-13T05:52:09.592Z,15.80
2022-11-13T05:54:37.113Z,17.40
2022-11-13T05:57:06.349Z,16.10
2022-11-13T05:59:35.857Z,17.23
2022-11-13T06:02:05.753Z,16.33
2022-11-13T06:04:35.253Z,16.13
2022-11-13T06:07:04.287Z,16.33
2022-11-13T06:09:33.752Z,15.17
2022-11-13T06:12:00.678Z,14.80
2022-11-13T06:14:30.522Z,15.90
2022-11-13T06:16:59.810Z,15.80
2022-11-13T06:19:26.754Z,14.10
2022-11-13T06:21:56.199Z,15.30
2022-11-13T06:24:23.145Z,15.00
2022-11-13T06:26:53.377Z,15.03
2022-11-13T06:29:22.540Z,14.80
2022-11-13T06:31:49.443Z,15.67
2022-11-13T06:34:21.389Z,15.70
2022-11-13T06:36:50.479Z,15.50
2022-11-13T06:39:21.998Z,15.90
2022-11-13T06:41:48.967Z,15.00
2022-11-13T06:44:15.910Z,15.80
2022-11-13T06:46:49.878Z,16.27
2022-11-13T06:49:19.180Z,16.40
2022-11-13T06:51:46.046Z,16.63
2022-11-13T06:54:12.904Z,16.03
2022-11-13T06:56:46.545Z,17.00
2022-11-13T06:59:16.067Z,16.10
2022-11-13T07:01:42.957Z,15.97
2022-11-13T07:04:14.701Z,17.00
2022-11-13T07:06:44.179Z,15.73
2022-11-13T07:09:11.153Z,15.93
2022-11-13T07:11:39.240Z,16.90
2022-11-13T07:14:06.112Z,16.97
2022-11-13T07:17:04.451Z,16.13
2022-11-13T07:19:25.987Z,17.10
2022-11-13T07:21:55.359Z,15.80
2022-11-13T07:24:24.566Z,17.10
2022-11-13T07:26:54.445Z,16.77
2022-11-13T07:29:24.314Z,17.70
2022-11-13T07:31:55.453Z,18.50
2022-11-13T07:34:22.329Z,17.00
2022-11-13T07:36:51.345Z,18.17
2022-11-13T07:39:20.863Z,18.47
2022-11-13T07:41:48.302Z,20.87
2022-11-13T07:44:39.972Z,19.23
2022-11-13T07:47:04.523Z,20.77
2022-11-13T07:49:31.439Z,22.30
2022-11-13T07:52:00.891Z,22.33
2022-11-13T07:54:30.781Z,20.20
2022-11-13T07:56:59.902Z,20.50
2022-11-13T07:59:26.830Z,21.20
2022-11-13T08:01:53.778Z,21.03
2022-11-13T08:04:20.749Z,22.30
2022-11-13T08:06:50.914Z,22.43
2022-11-13T08:09:18.009Z,22.40
2022-11-13T08:11:45.036Z,22.50
2022-11-13T08:14:12.147Z,23.87
2022-11-13T08:16:39.046Z,21.40
2022-11-13T08:19:08.950Z,21.67
2022-11-13T08:21:36.526Z,21.50
2022-11-13T08:24:06.413Z,20.20
2022-11-13T08:26:33.281Z,20.83
2022-11-13T08:29:00.610Z,21.17
2022-11-13T08:31:27.538Z,20.23
2022-11-13T08:33:56.863Z,21.17
2022-11-13T08:36:26.194Z,20.70
2022-11-13T08:38:53.070Z,20.47
2022-11-13T08:41:19.942Z,22.30
2022-11-13T08:43:51.733Z,22.47
2022-11-13T08:46:18.613Z,21.80
2022-11-13T08:48:48.428Z,22.13
2022-11-13T08:51:15.276Z,21.23
2022-11-13T08:53:44.220Z,21.77
2022-11-13T08:56:11.075Z,21.13
2022-11-13T08:58:37.964Z,22.73
2022-11-13T09:01:07.643Z,22.37
2022-11-13T09:03:36.988Z,21.33
2022-11-13T09:06:10.386Z,21.70
2022-11-13T09:08:39.552Z,21.33
2022-11-13T09:11:07.098Z,19.47
2022-11-13T09:13:37.534Z,20.10
2022-11-13T09:16:11.568Z,21.20
2022-11-13T09:18:38.406Z,21.93
2022-11-13T09:21:11.092Z,21.40
2022-11-13T09:23:37.936Z,19.70
2022-11-13T09:26:05.060Z,20.00
2022-11-13T09:28:34.393Z,19.10
2022-11-13T09:31:05.262Z,19.10
2022-11-13T09:33:32.128Z,19.90
2022-11-13T09:35:59.003Z,20.53
2022-11-13T09:38:26.426Z,19.77
2022-11-13T09:41:17.451Z,18.90
2022-11-13T09:44:10.060Z,20.03
2022-11-13T09:46:47.563Z,21.40
2022-11-13T09:49:18.545Z,22.63
2022-11-13T09:51:56.030Z,19.73
2022-11-13T09:54:23.675Z,20.57
2022-11-13T09:57:36.618Z,20.60
2022-11-13T10:00:16.171Z,19.73
2022-11-13T10:02:46.214Z,16.93
2022-11-13T10:05:28.387Z,18.10
2022-11-13T10:08:27.515Z,16.93
2022-11-13T10:11:18.334Z,18.60
2022-11-13T10:13:56.241Z,17.60
2022-11-13T10:16:43.403Z,19.20
2022-11-13T10:19:29.890Z,18.47
2022-11-13T10:22:35.079Z,19.53
2022-11-13T10:25:20.244Z,17.10
2022-11-13T10:28:43.686Z,19.20
2022-11-13T10:31:10.496Z,20.67
2022-11-13T10:33:37.519Z,22.47
2022-11-13T10:36:34.020Z,20.20
2022-11-13T10:39:11.595Z,20.77
2022-11-13T10:41:57.631Z,22.23
2022-11-13T10:44:35.355Z,21.37
2022-11-13T10:47:42.474Z,23.67
2022-11-13T10:50:24.408Z,22.77
2022-11-13T10:52:54.548Z,23.20
2022-11-13T10:55:41.067Z,24.23
2022-11-13T10:58:18.856Z,22.00
2022-11-13T11:00:49.241Z,22.10
2022-11-13T11:03:24.472Z,21.13
2022-11-13T11:06:11.294Z,20.77
2022-11-13T11:08:41.313Z,21.17
2022-11-13T11:11:38.633Z,20.67
2022-11-13T11:14:30.035Z,21.10
2022-11-13T11:16:58.293Z,19.87
2022-11-13T11:19:32.293Z,22.10
2022-11-13T11:22:25.930Z,22.43
2022-11-13T11:25:10.154Z,22.70
2022-11-13T11:28:24.290Z,22.60
2022-11-13T11:31:01.887Z,21.67
2022-11-13T11:33:37.795Z,23.70
2022-11-13T11:36:31.088Z,25.13
2022-11-13T11:39:19.824Z,24.03
2022-11-13T11:42:25.667Z,23.80
2022-11-13T11:45:16.843Z,24.90
2022-11-13T11:47:46.471Z,23.53
2022-11-13T11:50:29.544Z,23.57
2022-11-13T11:53:45.817Z,23.97
2022-11-13T11:56:21.468Z,24.10
2022-11-13T11:59:18.184Z,22.20
2022-11-13T12:02:06.266Z,22.00
2022-11-13T12:05:36.564Z,21.10
2022-11-13T12:08:12.354Z,21.00
2022-11-13T12:11:16.051Z,19.70
2022-11-13T12:14:07.680Z,19.00
2022-11-13T12:17:00.355Z,18.00
2022-11-13T12:19:56.730Z,17.63
2022-11-13T12:22:57.586Z,18.53
2022-11-13T12:25:43.365Z,17.33
2022-11-13T12:28:38.271Z,16.97
2022-11-13T12:32:06.463Z,17.90
2022-11-13T12:35:06.126Z,18.10
2022-11-13T12:38:01.706Z,16.10
2022-11-13T12:41:01.820Z,18.70
2022-11-13T12:43:46.964Z,16.33
2022-11-13T12:46:14.562Z,17.97
2022-11-13T12:48:49.528Z,16.50
2022-11-13T12:51:18.819Z,18.23
2022-11-13T12:53:55.960Z,18.13
2022-11-13T12:56:28.345Z,19.60
2022-11-13T12:59:29.261Z,20.77
2022-11-13T13:02:11.009Z,20.97
2022-11-13T13:05:07.425Z,20.67
2022-11-13T13:08:13.127Z,21.87
2022-11-13T13:10:53.774Z,21.93
2022-11-13T13:13:41.575Z,23.47
2022-11-13T13:16:12.037Z,22.90
2022-11-13T13:18:42.676Z,22.10
2022-11-13T13:21:10.928Z,24.53
2022-11-13T13:23:44.393Z,24.10
2022-11-13T13:26:25.293Z,23.40
2022-11-13T13:29:03.156Z,23.80
2022-11-13T13:32:17.992Z,23.53
2022-11-13T13:35:17.698Z,25.60
2022-11-13T13:38:29.593Z,26.27
2022-11-13T13:41:16.894Z,24.17
2022-11-13T13:44:53.276Z,27.20
2022-11-13T13:47:35.650Z,25.50
2022-11-13T13:50:10.223Z,27.83
2022-11-13T13:52:40.193Z,27.60
2022-11-13T13:55:18.199Z,26.90
2022-11-13T13:57:47.972Z,27.03
2022-11-13T14:00:20.800Z,25.60
2022-11-13T14:02:52.415Z,26.20
2022-11-13T14:05:25.420Z,26.70
2022-11-13T14:07:52.324Z,24.97
2022-11-13T14:10:28.111Z,25.60
2022-11-13T14:12:56.540Z,24.37
2022-11-13T14:15:32.618Z,24.00
2022-11-13T14:21:01.318Z,26.23
2022-11-13T14:23:36.932Z,24.90
2022-11-13T14:26:07.611Z,26.87
2022-11-13T14:28:53.276Z,25.30
2022-11-13T14:31:30.475Z,26.17
2022-11-13T14:34:01.939Z,26.67
2022-11-13T14:36:34.242Z,24.20
2022-11-13T14:39:01.332Z,24.93
2022-11-13T14:41:40.570Z,23.70
2022-11-13T14:44:10.749Z,25.67
2022-11-13T14:46:47.928Z,25.27
2022-11-13T14:49:27.044Z,24.90
2022-11-13T14:51:58.775Z,24.27
2022-11-13T14:54:59.990Z,25.00
2022-11-13T14:57:24.083Z,24.27
2022-11-13T14:59:50.932Z,20.97
2022-11-13T15:02:20.318Z,20.03
2022-11-13T15:04:47.190Z,20.03
2022-11-13T15:07:34.375Z,19.93
2022-11-13T15:10:01.539Z,18.23
2022-11-13T15:12:28.393Z,20.40
2022-11-13T15:14:59.748Z,20.23
2022-11-13T15:17:26.690Z,19.60
2022-11-13T15:19:56.931Z,18.40
2022-11-13T15:22:27.678Z,17.30
2022-11-13T15:24:55.408Z,18.40
2022-11-13T15:27:25.292Z,19.20
2022-11-13T15:29:52.205Z,18.30
2022-11-13T15:32:21.174Z,17.83
2022-11-13T15:34:48.076Z,18.17
2022-11-13T15:37:16.972Z,17.60
2022-11-13T15:39:44.095Z,15.20
2022-11-13T15:42:15.573Z,14.90
2022-11-13T15:44:42.585Z,15.40
2022-11-13T15:47:37.335Z,15.47
2022-11-13T15:50:15.276Z,15.27
2022-11-13T15:52:48.880Z,15.50
2022-11-13T15:55:31.358Z,14.90
2022-11-13T15:58:03.210Z,15.03
2022-11-13T16:00:33.222Z,14.13
2022-11-13T16:03:00.174Z,13.77
2022-11-13T16:05:29.310Z,13.27
2022-11-13T16:07:56.719Z,12.60
2022-11-13T16:10:25.440Z,13.00
2022-11-13T16:12:55.452Z,13.07
2022-11-13T16:15:22.723Z,11.90
2022-11-13T16:17:54.585Z,9.53
2022-11-13T16:20:29.076Z,9.53
2022-11-13T16:22:55.995Z,9.90
2022-11-13T16:25:23.216Z,10.57
2022-11-13T16:27:54.210Z,9.40
2022-11-13T16:30:23.398Z,9.27
2022-11-13T16:32:50.748Z,9.20
2022-11-13T16:35:22.928Z,8.20
2022-11-13T16:37:49.847Z,8.73
2022-11-13T16:40:24.710Z,9.13
2022-11-13T16:42:52.165Z,9.37
2022-11-13T16:45:20.549Z,9.33
2022-11-13T16:47:47.855Z,9.57
2022-11-13T16:50:29.771Z,10.30
2022-11-13T16:52:56.778Z,8.70
2022-11-13T16:55:24.195Z,8.03
2022-11-13T16:57:51.759Z,8.20
2022-11-13T17:00:20.374Z,7.83
2022-11-13T17:02:52.809Z,9.63
2022-11-13T17:05:21.991Z,9.67
2022-11-13T17:07:55.590Z,9.17
2022-11-13T17:10:31.471Z,8.90
2022-11-13T17:13:00.033Z,9.10
2022-11-13T17:15:27.082Z,8.53
2022-11-13T17:17:58.272Z,7.00
2022-11-13T17:20:25.449Z,8.50
2022-11-13T17:22:54.684Z,8.03
2022-11-13T17:25:26.494Z,8.07
2022-11-13T17:27:56.046Z,7.40
2022-11-13T17:30:23.272Z,8.10
2022-11-13T17:32:52.253Z,8.00
2022-11-13T17:35:19.142Z,8.07
2022-11-13T17:37:49.495Z,7.70
2022-11-13T17:40:16.638Z,8.10
2022-11-13T17:42:48.056Z,8.23
2022-11-13T17:45:17.765Z,8.17
2022-11-13T17:47:44.755Z,8.37
2022-11-13T17:50:11.802Z,8.40
2022-11-13T17:52:43.307Z,8.60
2022-11-13T17:55:13.000Z,8.60
2022-11-13T17:57:42.148Z,9.00
2022-11-13T18:00:09.993Z,8.90
2022-11-13T18:02:41.385Z,9.33
2022-11-13T18:05:10.725Z,9.00
2022-11-13T18:07:38.281Z,9.37
2022-11-13T18:10:05.930Z,9.73
2022-11-13T18:12:32.866Z,10.97
2022-11-13T18:14:59.749Z,9.87
2022-11-13T18:17:26.877Z,11.07
2022-11-13T18:20:00.408Z,11.23
2022-11-13T18:22:31.575Z,11.13
2022-11-13T18:25:03.179Z,12.73
2022-11-13T18:27:30.277Z,12.17
2022-11-13T18:29:57.231Z,13.00
2022-11-13T18:32:24.146Z,13.00
2022-11-13T18:34:55.533Z,14.67
2022-11-13T18:37:22.709Z,14.50
2022-11-13T18:39:49.718Z,17.47
2022-11-13T18:42:21.300Z,16.43
2022-11-13T18:44:48.195Z,17.10
2022-11-13T18:47:17.898Z,18.20
2022-11-13T18:49:44.808Z,18.77
2022-11-13T18:52:16.283Z,19.10
2022-11-13T18:54:43.161Z,18.43
2022-11-13T18:57:12.369Z,19.43
2022-11-13T18:59:39.239Z,19.80
2022-11-13T19:02:11.574Z,20.40
2022-11-13T19:04:38.585Z,20.50
2022-11-13T19:07:05.862Z,21.40
2022-11-13T19:09:35.375Z,22.00
2022-11-13T19:12:04.636Z,21.93
2022-11-13T19:14:31.545Z,23.40
2022-11-13T19:17:00.735Z,21.00
2022-11-13T19:19:27.865Z,22.50
2022-11-13T19:21:54.772Z,22.03
2022-11-13T19:24:21.707Z,23.37
2022-11-13T19:26:48.719Z,21.23
2022-11-13T19:29:15.751Z,23.43
2022-11-13T19:31:44.738Z,22.83
2022-11-13T19:34:12.508Z,22.83
2022-11-13T19:36:41.401Z,21.80
2022-11-13T19:39:09.813Z,21.90
2022-11-13T19:41:36.888Z,20.50
2022-11-13T19:44:05.941Z,23.50
2022-11-13T19:46:34.020Z,23.67
2022-11-13T19:49:01.206Z,24.47
2022-11-13T19:51:28.404Z,22.50
2022-11-13T19:53:59.996Z,23.60
2022-11-13T19:56:30.296Z,24.37
2022-11-13T19:58:59.479Z,23.60
2022-11-13T20:01:29.363Z,24.70
2022-11-13T20:04:04.232Z,23.80
2022-11-13T20:06:35.354Z,23.97
2022-11-13T20:09:04.126Z,24.37
2022-11-13T20:11:32.247Z,24.37
2022-11-13T20:13:59.382Z,23.53
2022-11-13T20:16:26.849Z,24.80
2022-11-13T20:18:58.003Z,23.30
2022-11-13T20:21:27.144Z,24.70
2022-11-13T20:23:57.895Z,24.03
2022-11-13T20:26:25.592Z,24.17
2022-11-13T20:28:52.815Z,25.50
2022-11-13T20:31:23.355Z,24.23
2022-11-13T20:33:52.534Z,23.80
2022-11-13T20:36:23.468Z,24.07
2022-11-13T20:38:55.281Z,24.90
2022-11-13T20:41:29.908Z,25.67
2022-11-13T20:44:01.702Z,27.30
2022-11-13T20:46:29.619Z,24.17
2022-11-13T20:48:57.557Z,26.10
2022-11-13T20:51:27.204Z,24.43
2022-11-13T20:53:56.810Z,25.10
2022-11-13T20:56:26.420Z,24.90
2022-11-13T20:58:53.879Z,26.33
2022-11-13T21:01:27.509Z,26.87
2022-11-13T21:03:56.023Z,26.23
2022-11-13T21:06:25.064Z,24.60
2022-11-13T21:08:55.144Z,26.93
2022-11-13T21:11:25.515Z,29.90
2022-11-13T21:13:58.199Z,26.93
2022-11-13T21:16:25.657Z,27.67
2022-11-13T21:18:52.584Z,28.33
2022-11-13T21:21:22.111Z,28.67
2022-11-13T21:23:49.592Z,29.33
2022-11-13T21:26:19.380Z,29.33
2022-11-13T21:28:46.528Z,29.20
2022-11-13T21:31:19.596Z,29.37
2022-11-13T21:33:48.309Z,28.33
2022-11-13T21:36:24.885Z,29.23
2022-11-13T21:38:55.904Z,29.97
2022-11-13T21:41:25.100Z,29.20
2022-11-13T21:43:59.660Z,29.40
2022-11-13T21:46:33.262Z,28.77
2022-11-13T21:49:11.182Z,29.60
2022-11-13T21:51:42.439Z,29.40
2022-11-13T21:54:12.408Z,30.67
2022-11-13T21:56:42.260Z,30.00
2022-11-13T21:59:11.724Z,31.50
2022-11-13T22:01:39.040Z,29.57
2022-11-13T22:04:13.706Z,30.23
2022-11-13T22:06:40.649Z,30.77
2022-11-13T22:09:17.656Z,29.60
2022-11-13T22:11:44.911Z,28.80
2022-11-13T22:14:14.378Z,30.30
2022-11-13T22:16:46.351Z,29.17
2022-11-13T22:19:23.966Z,28.60
2022-11-13T22:21:54.023Z,30.40
2022-11-13T22:24:21.029Z,28.37
2022-11-13T22:26:48.421Z,29.97
2022-11-13T22:29:17.606Z,28.57
2022-11-13T22:31:45.036Z,30.40
2022-11-13T22:34:12.149Z,30.00
2022-11-13T22:36:39.100Z,30.00
2022-11-13T22:39:06.703Z,29.60
2022-11-13T22:41:36.317Z,28.10
2022-11-13T22:44:14.325Z,30.00
2022-11-13T22:46:45.900Z,29.87
2022-11-13T22:49:12.985Z,31.97
2022-11-13T22:51:41.668Z,30.83
2022-11-13T22:54:12.500Z,30.90
2022-11-13T22:56:41.206Z,29.73
2022-11-13T22:59:11.440Z,30.23
2022-11-13T23:01:47.587Z,30.50
2022-11-13T23:04:14.560Z,30.67
2022-11-13T23:06:42.895Z,30.13
2022-11-13T23:09:12.388Z,30.40
2022-11-13T23:11:41.140Z,28.87
2022-11-13T23:14:13.778Z,29.53
2022-11-13T23:16:40.751Z,33.37
2022-11-13T23:19:10.743Z,28.63
2022-11-13T23:21:39.839Z,30.60
2022-11-13T23:24:11.354Z,30.77
2022-11-13T23:26:40.423Z,30.67
2022-11-13T23:29:07.289Z,30.07
2022-11-13T23:31:34.116Z,31.50
2022-11-13T23:34:04.034Z,31.30
2022-11-13T23:36:35.981Z,31.93
2022-11-13T23:39:07.883Z,32.43
2022-11-13T23:41:35.097Z,30.00
2022-11-13T23:44:09.169Z,30.20
2022-11-13T23:46:39.655Z,29.77
2022-11-13T23:49:11.028Z,30.63
2022-11-13T23:51:41.069Z,32.63
2022-11-13T23:54:08.063Z,28.77
2022-11-13T23:56:34.940Z,30.60
2022-11-13T23:59:01.808Z,29.90
